Terminal Aerodrome Forecast
Issued by NWS Shreveport, LA

Home | Current Version | Previous Version | Text Only | Print | Product List | Glossary On
Versions: 1 2 3 4 5 6 7 8 9 10 11 12 13 14 15 16 17 18
660
FTUS44 KSHV 240533
TAFTXK
TAF
KTXK 240533Z 2406/2506 17006KT P6SM FEW250
     FM241100 17003KT 5SM BR SCT008 BKN015
      TEMPO 2412/2414 3SM BR BKN006 BKN015
     FM241500 21006KT P6SM SCT030
     FM241600 21007KT P6SM SCT035
     FM241900 20008KT P6SM BKN050 BKN250
     FM250100 17004KT P6SM FEW050=

USA.gov is the U.S. government's official web portal to all federal, state and local government web resources and services.